createdAt,value
2018-08-09T00:02:05.649Z,13.37
2018-08-09T00:04:34.772Z,13.77
2018-08-09T00:07:04.149Z,13.90
2018-08-09T00:09:33.926Z,16.80
2018-08-09T00:12:03.677Z,15.40
2018-08-09T00:14:32.883Z,14.70
2018-08-09T00:17:02.046Z,14.43
2018-08-09T00:19:30.947Z,15.07
2018-08-09T00:22:00.160Z,14.03
2018-08-09T00:24:29.847Z,14.63
2018-08-09T00:26:59.166Z,14.03
2018-08-09T00:29:28.194Z,13.80
2018-08-09T00:31:57.599Z,14.67
2018-08-09T00:34:27.078Z,13.87
2018-08-09T00:36:56.719Z,14.13
2018-08-09T00:39:26.455Z,13.63
2018-08-09T00:41:55.604Z,14.23
2018-08-09T00:44:24.709Z,14.03
2018-08-09T00:46:53.924Z,14.43
2018-08-09T00:49:23.094Z,16.87
2018-08-09T00:51:52.121Z,13.43
2018-08-09T00:54:21.726Z,14.77
2018-08-09T00:56:51.316Z,13.50
2018-08-09T00:59:20.476Z,13.48
2018-08-09T01:01:49.544Z,13.57
2018-08-09T01:04:19.679Z,13.20
2018-08-09T01:06:50.204Z,12.90
2018-08-09T01:09:19.554Z,13.43
2018-08-09T01:11:49.062Z,12.57
2018-08-09T01:14:18.183Z,12.10
2018-08-09T01:16:47.287Z,12.60
2018-08-09T01:19:16.516Z,13.10
2018-08-09T01:21:45.727Z,11.90
2018-08-09T01:24:15.670Z,13.67
2018-08-09T01:26:48.870Z,12.13
2018-08-09T01:29:19.032Z,12.53
2018-08-09T01:31:49.006Z,12.67
2018-08-09T01:34:18.650Z,12.27
2018-08-09T01:36:47.655Z,12.27
2018-08-09T01:39:16.654Z,12.17
2018-08-09T01:41:56.561Z,12.20
2018-08-09T01:44:25.882Z,12.10
2018-08-09T01:46:54.883Z,12.20
2018-08-09T01:49:24.031Z,11.27
2018-08-09T01:51:53.075Z,12.30
2018-08-09T01:54:22.130Z,11.60
2018-08-09T01:56:51.150Z,11.93
2018-08-09T01:59:20.398Z,12.27
2018-08-09T02:01:49.397Z,11.83
2018-08-09T02:04:18.456Z,11.60
2018-08-09T02:06:47.601Z,11.03
2018-08-09T02:09:21.782Z,12.70
2018-08-09T02:11:50.948Z,12.73
2018-08-09T02:14:20.024Z,12.33
2018-08-09T02:16:49.144Z,12.27
2018-08-09T02:19:19.505Z,12.63
2018-08-09T02:21:49.470Z,12.43
2018-08-09T02:24:18.581Z,12.40
2018-08-09T02:26:47.735Z,11.23
2018-08-09T02:29:16.914Z,12.13
2018-08-09T02:31:45.904Z,13.00
2018-08-09T02:34:15.206Z,12.80
2018-08-09T02:36:44.333Z,12.97
2018-08-09T02:39:13.325Z,12.60
2018-08-09T02:41:42.948Z,12.03
2018-08-09T02:44:11.927Z,12.00
2018-08-09T02:46:41.091Z,12.20
2018-08-09T02:49:11.018Z,13.13
2018-08-09T02:51:40.052Z,12.77
2018-08-09T02:54:09.207Z,12.03
2018-08-09T02:56:38.182Z,13.20
2018-08-09T02:59:07.071Z,11.83
2018-08-09T03:01:36.027Z,12.17
2018-08-09T03:04:05.432Z,11.63
2018-08-09T03:06:34.353Z,12.87
2018-08-09T03:09:03.705Z,13.23
2018-08-09T03:11:33.325Z,12.33
2018-08-09T03:14:02.247Z,12.90
2018-08-09T03:16:31.247Z,12.47
2018-08-09T03:19:00.407Z,12.73
2018-08-09T03:21:29.268Z,12.77
2018-08-09T03:23:58.419Z,13.07
2018-08-09T03:26:27.883Z,13.07
2018-08-09T03:28:56.806Z,12.83
2018-08-09T03:31:25.813Z,13.13
2018-08-09T03:33:55.169Z,13.67
2018-08-09T03:36:24.034Z,13.30
2018-08-09T03:38:53.034Z,13.83
2018-08-09T03:41:22.555Z,15.17
2018-08-09T03:43:51.565Z,14.53
2018-08-09T03:46:20.643Z,14.10
2018-08-09T03:48:49.956Z,14.70
2018-08-09T03:51:18.984Z,15.23
2018-08-09T03:53:48.003Z,15.37
2018-08-09T03:56:17.423Z,15.27
2018-08-09T03:58:46.336Z,14.90
2018-08-09T04:01:15.323Z,15.67
2018-08-09T04:03:45.422Z,16.90
2018-08-09T04:06:14.513Z,16.80
2018-08-09T04:08:43.647Z,17.10
2018-08-09T04:11:13.033Z,17.13
2018-08-09T04:13:42.240Z,18.73
2018-08-09T04:16:11.255Z,18.60
2018-08-09T04:18:41.926Z,16.00
2018-08-09T04:21:10.784Z,16.67
2018-08-09T04:23:39.678Z,15.03
2018-08-09T04:26:08.722Z,13.00
2018-08-09T04:28:37.747Z,13.40
2018-08-09T04:31:06.796Z,13.90
2018-08-09T04:33:35.864Z,13.45
2018-08-09T04:36:04.791Z,13.18
2018-08-09T04:38:33.959Z,13.25
2018-08-09T04:41:03.524Z,12.68
2018-08-09T04:43:32.414Z,11.80
2018-08-09T04:46:01.497Z,11.68
2018-08-09T04:48:31.048Z,12.18
2018-08-09T04:51:00.025Z,11.95
2018-08-09T04:53:29.062Z,11.03
2018-08-09T04:55:58.513Z,11.12
2018-08-09T04:58:27.466Z,12.18
2018-08-09T05:00:56.497Z,12.93
2018-08-09T05:03:25.819Z,11.45
2018-08-09T05:05:55.686Z,11.70
2018-08-09T05:08:24.581Z,12.95
2018-08-09T05:10:54.215Z,12.65
2018-08-09T05:13:23.452Z,12.25
2018-08-09T05:15:52.636Z,11.60
2018-08-09T05:18:22.395Z,11.70
2018-08-09T05:20:51.284Z,12.40
2018-08-09T05:23:21.368Z,12.15
2018-08-09T05:25:51.110Z,12.93
2018-08-09T05:28:19.980Z,12.80
2018-08-09T05:30:49.017Z,12.53
2018-08-09T05:33:18.386Z,13.80
2018-08-09T05:35:48.555Z,12.85
2018-08-09T05:38:17.608Z,13.15
2018-08-09T05:40:46.849Z,13.10
2018-08-09T05:43:15.875Z,13.55
2018-08-09T05:45:44.984Z,14.00
2018-08-09T05:48:14.363Z,12.75
2018-08-09T05:50:43.306Z,13.48
2018-08-09T05:53:12.196Z,12.85
2018-08-09T05:55:41.346Z,12.50
2018-08-09T05:58:10.233Z,12.78
2018-08-09T06:00:39.348Z,11.95
2018-08-09T06:03:08.299Z,12.80
2018-08-09T06:05:37.388Z,11.88
2018-08-09T06:08:06.320Z,12.33
2018-08-09T06:10:35.601Z,11.20
2018-08-09T06:13:04.484Z,13.25
2018-08-09T06:15:33.454Z,11.53
2018-08-09T06:18:02.781Z,12.80
2018-08-09T06:20:31.752Z,12.50
2018-08-09T06:23:00.667Z,12.63
2018-08-09T06:25:30.343Z,12.43
2018-08-09T06:27:59.382Z,12.85
2018-08-09T06:30:28.375Z,11.48
2018-08-09T06:32:57.369Z,12.50
2018-08-09T06:35:26.433Z,12.35
2018-08-09T06:37:55.522Z,12.85
2018-08-09T06:40:24.929Z,13.10
2018-08-09T06:42:53.868Z,12.65
2018-08-09T06:45:22.785Z,12.45
2018-08-09T06:47:51.863Z,13.50
2018-08-09T06:50:20.749Z,12.58
2018-08-09T06:52:49.719Z,12.75
2018-08-09T06:55:19.113Z,14.93
2018-08-09T06:57:48.117Z,12.40
2018-08-09T07:00:17.053Z,13.70
2018-08-09T07:02:46.556Z,12.80
2018-08-09T07:05:15.419Z,15.03
2018-08-09T07:07:44.402Z,12.75
2018-08-09T07:10:13.856Z,12.80
2018-08-09T07:12:42.805Z,11.38
2018-08-09T07:15:13.180Z,14.93
2018-08-09T07:17:42.255Z,12.40
2018-08-09T07:20:11.519Z,12.63
2018-08-09T07:22:41.587Z,12.50
2018-08-09T07:25:10.619Z,12.88
2018-08-09T07:27:39.635Z,12.23
2018-08-09T07:30:10.861Z,11.08
2018-08-09T07:32:40.222Z,11.60
2018-08-09T07:35:10.082Z,12.28
2018-08-09T07:37:39.855Z,12.63
2018-08-09T07:40:10.860Z,11.93
2018-08-09T07:42:40.026Z,12.13
2018-08-09T07:45:11.479Z,11.57
2018-08-09T07:47:40.433Z,11.63
2018-08-09T07:50:09.946Z,10.50
2018-08-09T07:52:39.322Z,10.53
2018-08-09T07:55:09.933Z,12.28
2018-08-09T07:57:39.332Z,11.05
2018-08-09T08:00:10.994Z,10.30
2018-08-09T08:02:39.978Z,10.48
2018-08-09T08:05:09.263Z,8.13
2018-08-09T08:07:38.671Z,8.30
2018-08-09T08:10:09.803Z,7.45
2018-08-09T08:12:38.871Z,6.47
2018-08-09T08:15:09.032Z,7.40
2018-08-09T08:17:38.996Z,6.25
2018-08-09T08:20:08.692Z,7.75
2018-08-09T08:22:37.719Z,6.67
2018-08-09T08:25:07.388Z,6.62
2018-08-09T08:27:36.234Z,7.00
2018-08-09T08:30:09.164Z,6.90
2018-08-09T08:35:24.331Z,4.12
2018-08-09T08:37:53.284Z,4.45
2018-08-09T08:40:22.207Z,3.85
2018-08-09T08:42:51.316Z,4.37
2018-08-09T08:45:20.342Z,4.10
2018-08-09T08:47:49.217Z,3.90
2018-08-09T08:50:18.745Z,3.75
2018-08-09T08:52:47.695Z,3.87
2018-08-09T08:55:16.630Z,3.58
2018-08-09T08:57:45.509Z,3.40
2018-08-09T09:00:14.439Z,3.65
2018-08-09T09:02:43.335Z,4.72
2018-08-09T09:05:13.810Z,4.45
2018-08-09T09:07:42.841Z,3.90
2018-08-09T09:10:13.913Z,3.87
2018-08-09T09:12:43.070Z,4.58
2018-08-09T09:15:14.347Z,3.65
2018-08-09T09:17:44.048Z,3.87
2018-08-09T09:20:16.186Z,4.33
2018-08-09T09:22:45.284Z,4.50
2018-08-09T09:25:14.460Z,4.30
2018-08-09T09:27:43.904Z,4.42
2018-08-09T09:30:14.370Z,4.33
2018-08-09T09:32:43.469Z,4.60
2018-08-09T09:35:12.317Z,4.45
2018-08-09T09:37:41.799Z,4.30
2018-08-09T09:40:11.616Z,4.83
2018-08-09T09:42:40.499Z,5.33
2018-08-09T09:45:10.322Z,4.37
2018-08-09T09:47:39.443Z,5.28
2018-08-09T09:50:10.417Z,3.87
2018-08-09T09:52:39.457Z,4.17
2018-08-09T09:55:08.360Z,4.08
2018-08-09T09:57:37.747Z,4.03
2018-08-09T10:00:12.402Z,4.25
2018-08-09T10:02:41.336Z,3.77
2018-08-09T10:05:10.384Z,3.95
2018-08-09T10:07:39.283Z,4.08
2018-08-09T10:10:08.310Z,3.90
2018-08-09T10:12:37.322Z,4.30
2018-08-09T10:15:06.429Z,4.25
2018-08-09T10:17:35.535Z,4.20
2018-08-09T10:20:04.558Z,3.90
2018-08-09T10:22:33.488Z,3.67
2018-08-09T10:25:02.436Z,4.22
2018-08-09T10:27:31.367Z,4.35
2018-08-09T10:30:00.699Z,3.85
2018-08-09T10:32:29.606Z,3.80
2018-08-09T10:34:58.587Z,3.42
2018-08-09T10:37:27.531Z,3.50
2018-08-09T10:39:56.440Z,3.55
2018-08-09T10:42:25.309Z,3.60
2018-08-09T10:44:54.258Z,7.42
2018-08-09T10:47:23.154Z,3.90
2018-08-09T10:49:52.010Z,3.35
2018-08-09T10:52:21.358Z,3.37
2018-08-09T10:54:50.274Z,2.98
2018-08-09T10:57:19.362Z,3.02
2018-08-09T10:59:48.951Z,3.30
2018-08-09T11:02:17.819Z,3.47
2018-08-09T11:04:46.757Z,3.52
2018-08-09T11:07:15.741Z,3.75
2018-08-09T11:09:44.633Z,3.47
2018-08-09T11:12:13.506Z,3.55
2018-08-09T11:14:42.872Z,2.77
2018-08-09T11:17:11.856Z,3.60
2018-08-09T11:19:40.722Z,3.52
2018-08-09T11:22:09.923Z,3.15
2018-08-09T11:24:38.932Z,3.10
2018-08-09T11:27:07.695Z,3.15
2018-08-09T11:29:37.014Z,3.10
2018-08-09T11:32:06.532Z,2.75
2018-08-09T11:34:35.499Z,2.50
2018-08-09T11:37:05.108Z,2.35
2018-08-09T11:39:34.084Z,2.87
2018-08-09T11:42:03.035Z,2.90
2018-08-09T11:44:32.400Z,2.70
2018-08-09T11:47:01.310Z,2.67
2018-08-09T11:49:30.359Z,2.40
2018-08-09T11:51:59.406Z,3.50
2018-08-09T11:54:28.323Z,2.50
2018-08-09T11:56:57.383Z,2.40
2018-08-09T11:59:27.239Z,2.62
2018-08-09T12:01:56.165Z,2.33
2018-08-09T12:04:25.188Z,2.50
2018-08-09T12:06:54.150Z,2.30
2018-08-09T12:09:23.032Z,2.00
2018-08-09T12:11:51.949Z,2.10
2018-08-09T12:14:21.288Z,2.62
2018-08-09T12:16:50.300Z,2.17
2018-08-09T12:19:19.211Z,2.42
2018-08-09T12:21:48.288Z,2.30
2018-08-09T12:24:17.194Z,2.05
2018-08-09T12:26:46.183Z,2.25
2018-08-09T12:29:15.645Z,2.67
2018-08-09T12:31:44.648Z,2.77
2018-08-09T12:34:13.572Z,2.20
2018-08-09T12:36:42.976Z,2.52
2018-08-09T12:39:13.181Z,2.83
2018-08-09T12:41:42.747Z,2.47
2018-08-09T12:44:11.908Z,2.60
2018-08-09T12:46:40.921Z,2.58
2018-08-09T12:49:10.246Z,3.10
2018-08-09T12:51:39.294Z,2.62
2018-08-09T12:54:08.335Z,2.10
2018-08-09T12:56:37.730Z,2.55
2018-08-09T12:59:06.695Z,2.40
2018-08-09T13:01:35.584Z,2.35
2018-08-09T13:04:05.018Z,2.40
2018-08-09T13:06:34.046Z,2.87
2018-08-09T13:09:02.985Z,2.52
2018-08-09T13:11:31.926Z,2.52
2018-08-09T13:14:00.804Z,2.30
2018-08-09T13:16:29.752Z,3.17
2018-08-09T13:18:58.724Z,2.60
2018-08-09T13:21:27.574Z,3.00
2018-08-09T13:23:56.554Z,2.90
2018-08-09T13:26:26.075Z,2.33
2018-08-09T13:28:55.084Z,3.15
2018-08-09T13:31:24.079Z,2.70
2018-08-09T13:33:53.216Z,2.40
2018-08-09T13:36:22.179Z,2.42
2018-08-09T13:38:51.170Z,3.08
2018-08-09T13:41:20.391Z,2.83
2018-08-09T13:43:49.528Z,2.45
2018-08-09T13:46:18.686Z,2.22
2018-08-09T13:48:48.096Z,2.40
2018-08-09T13:51:17.124Z,2.55
2018-08-09T13:53:46.025Z,3.10
2018-08-09T13:56:15.550Z,3.70
2018-08-09T13:58:44.712Z,2.27
2018-08-09T14:01:13.932Z,2.35
2018-08-09T14:03:42.933Z,3.00
2018-08-09T14:06:11.940Z,2.50
2018-08-09T14:08:40.888Z,2.50
2018-08-09T14:11:10.285Z,2.40
2018-08-09T14:13:39.401Z,2.72
2018-08-09T14:16:09.010Z,2.05
2018-08-09T14:18:38.166Z,2.05
2018-08-09T14:21:07.137Z,2.67
2018-08-09T14:23:35.996Z,2.27
2018-08-09T14:26:04.922Z,2.17
2018-08-09T14:28:33.880Z,2.67
2018-08-09T14:31:02.736Z,3.02
2018-08-09T14:33:31.694Z,2.47
2018-08-09T14:36:00.506Z,2.08
2018-08-09T14:38:29.378Z,2.33
2018-08-09T14:40:58.253Z,2.35
2018-08-09T14:43:27.090Z,2.00
2018-08-09T14:45:55.960Z,2.47
2018-08-09T14:48:25.266Z,1.98
2018-08-09T14:50:54.193Z,1.75
2018-08-09T14:53:23.023Z,2.25
2018-08-09T14:55:51.924Z,2.10
2018-08-09T14:58:20.832Z,3.62
2018-08-09T15:00:49.670Z,2.17
2018-08-09T15:03:18.541Z,2.58
2018-08-09T15:05:47.401Z,1.90
2018-08-09T15:08:16.239Z,2.40
2018-08-09T15:10:45.158Z,2.77
2018-08-09T15:13:14.012Z,2.25
2018-08-09T15:15:42.918Z,2.15
2018-08-09T15:18:11.903Z,2.40
2018-08-09T15:20:40.833Z,2.25
2018-08-09T15:23:09.750Z,2.22
2018-08-09T15:25:38.669Z,2.60
2018-08-09T15:28:07.926Z,2.62
2018-08-09T15:30:36.846Z,2.50
2018-08-09T15:33:05.960Z,2.33
2018-08-09T15:35:34.844Z,2.75
2018-08-09T15:38:03.741Z,2.42
2018-08-09T15:40:32.722Z,2.20
2018-08-09T15:43:01.612Z,2.30
2018-08-09T15:45:30.531Z,2.45
2018-08-09T15:48:00.027Z,1.62
2018-08-09T15:50:29.006Z,2.65
2018-08-09T15:52:57.986Z,2.30
2018-08-09T15:55:26.965Z,2.10
2018-08-09T15:57:56.144Z,2.52
2018-08-09T16:00:25.438Z,2.45
2018-08-09T16:02:54.651Z,2.12
2018-08-09T16:05:23.827Z,3.42
2018-08-09T16:07:52.931Z,2.12
2018-08-09T16:10:22.045Z,3.08
2018-08-09T16:12:51.036Z,2.47
2018-08-09T16:15:20.558Z,2.27
2018-08-09T16:17:50.222Z,2.42
2018-08-09T16:20:19.409Z,2.20
2018-08-09T16:22:48.680Z,2.67
2018-08-09T16:25:19.516Z,2.42
2018-08-09T16:27:49.309Z,3.58
2018-08-09T16:30:20.432Z,3.02
2018-08-09T16:32:49.721Z,2.80
2018-08-09T16:35:19.061Z,3.30
2018-08-09T16:37:48.495Z,2.45
2018-08-09T16:40:19.411Z,2.35
2018-08-09T16:42:49.218Z,2.35
2018-08-09T16:45:19.388Z,3.10
2018-08-09T16:47:49.095Z,2.70
2018-08-09T16:50:20.476Z,3.83
2018-08-09T16:52:50.973Z,2.60
2018-08-09T16:55:27.417Z,3.02
2018-08-09T16:57:56.548Z,2.45
2018-08-09T17:00:26.522Z,3.52
2018-08-09T17:02:56.097Z,3.25
2018-08-09T17:05:27.857Z,3.30
2018-08-09T17:07:57.391Z,3.60
2018-08-09T17:10:27.144Z,4.10
2018-08-09T17:12:56.256Z,4.75
2018-08-09T17:15:27.574Z,3.90
2018-08-09T17:17:57.341Z,3.58
2018-08-09T17:20:33.050Z,3.62
2018-08-09T17:23:03.425Z,3.37
2018-08-09T17:25:32.651Z,3.08
2018-08-09T17:28:02.128Z,3.62
2018-08-09T17:30:31.247Z,3.40
2018-08-09T17:33:00.440Z,2.90
2018-08-09T17:35:29.693Z,3.15
2018-08-09T17:37:58.715Z,3.40
2018-08-09T17:40:31.338Z,3.52
2018-08-09T17:43:00.948Z,2.77
2018-08-09T17:45:33.816Z,3.83
2018-08-09T17:48:03.699Z,3.92
2018-08-09T17:50:32.829Z,3.72
2018-08-09T17:53:03.791Z,4.12
2018-08-09T17:55:33.368Z,4.20
2018-08-09T17:58:02.487Z,5.90
2018-08-09T18:00:33.558Z,5.00
2018-08-09T18:03:02.632Z,7.17
2018-08-09T18:05:31.528Z,7.12
2018-08-09T18:08:01.178Z,9.48
2018-08-09T18:10:32.540Z,14.33
2018-08-09T18:13:01.806Z,5.95
2018-08-09T18:15:31.594Z,9.20
2018-08-09T18:18:01.582Z,9.43
2018-08-09T18:20:32.335Z,11.18
2018-08-09T18:23:02.000Z,8.18
2018-08-09T18:25:31.052Z,5.92
2018-08-09T18:28:00.519Z,6.90
2018-08-09T18:30:29.684Z,6.40
2018-08-09T18:32:58.917Z,4.25
2018-08-09T18:35:28.432Z,5.53
2018-08-09T18:37:57.484Z,4.55
2018-08-09T18:40:28.218Z,4.37
2018-08-09T18:42:57.368Z,4.17
2018-08-09T18:45:34.211Z,4.15
2018-08-09T18:48:03.179Z,4.25
2018-08-09T18:50:32.460Z,4.42
2018-08-09T18:53:01.720Z,3.95
2018-08-09T18:55:30.779Z,4.22
2018-08-09T18:57:59.808Z,4.30
2018-08-09T19:00:30.623Z,3.80
2018-08-09T19:02:59.847Z,3.70
2018-08-09T19:05:29.133Z,4.00
2018-08-09T19:07:58.374Z,4.62
2018-08-09T19:10:29.176Z,4.92
2018-08-09T19:12:58.351Z,4.50
2018-08-09T19:15:27.515Z,4.90
2018-08-09T19:17:56.746Z,4.35
2018-08-09T19:20:34.436Z,5.55
2018-08-09T19:23:03.737Z,5.40
2018-08-09T19:25:32.778Z,4.65
2018-08-09T19:28:02.156Z,6.87
2018-08-09T19:30:32.342Z,7.62
2018-08-09T19:33:01.480Z,4.17
2018-08-09T19:35:30.531Z,4.05
2018-08-09T19:37:59.672Z,3.47
2018-08-09T19:40:33.548Z,3.30
2018-08-09T19:43:02.705Z,3.35
2018-08-09T19:45:31.874Z,3.30
2018-08-09T19:48:04.670Z,3.47
2018-08-09T19:50:37.013Z,3.17
2018-08-09T19:53:06.332Z,3.20
2018-08-09T19:55:35.374Z,3.45
2018-08-09T19:58:04.724Z,9.53
2018-08-09T20:00:37.518Z,3.33
2018-08-09T20:03:06.440Z,3.50
2018-08-09T20:05:35.657Z,4.25
2018-08-09T20:08:04.864Z,3.12
2018-08-09T20:10:34.064Z,4.72
2018-08-09T20:13:06.076Z,5.28
2018-08-09T20:15:39.159Z,5.78
2018-08-09T20:18:09.457Z,3.83
2018-08-09T20:20:38.559Z,3.40
2018-08-09T20:23:07.752Z,3.72
2018-08-09T20:25:36.838Z,3.25
2018-08-09T20:28:06.269Z,3.77
2018-08-09T20:30:35.419Z,3.77
2018-08-09T20:33:07.303Z,4.20
2018-08-09T20:35:36.533Z,3.45
2018-08-09T20:38:07.328Z,3.22
2018-08-09T20:40:37.970Z,3.67
2018-08-09T20:43:07.084Z,3.83
2018-08-09T20:45:39.735Z,3.70
2018-08-09T20:48:08.956Z,3.20
2018-08-09T20:50:38.967Z,3.30
2018-08-09T20:53:08.177Z,3.47
2018-08-09T20:55:37.352Z,3.33
2018-08-09T20:58:06.680Z,3.45
2018-08-09T21:00:36.975Z,3.00
2018-08-09T21:03:06.115Z,3.35
2018-08-09T21:05:37.708Z,3.27
2018-08-09T21:08:07.861Z,4.22
2018-08-09T21:10:37.441Z,3.62
2018-08-09T21:13:07.035Z,3.58
2018-08-09T21:15:36.163Z,3.25
2018-08-09T21:18:05.259Z,3.83
2018-08-09T21:20:34.642Z,3.90
2018-08-09T21:23:04.958Z,3.50
2018-08-09T21:25:34.379Z,3.30
2018-08-09T21:28:08.281Z,3.67
2018-08-09T21:30:47.659Z,3.60
2018-08-09T21:33:17.321Z,3.80
2018-08-09T21:35:46.618Z,3.90
2018-08-09T21:38:15.912Z,3.80
2018-08-09T21:40:52.081Z,3.90
2018-08-09T21:43:21.379Z,4.00
2018-08-09T21:45:50.585Z,3.47
2018-08-09T21:48:30.197Z,4.37
2018-08-09T21:50:59.403Z,3.53
2018-08-09T21:53:42.479Z,3.57
2018-08-09T21:56:11.535Z,3.73
2018-08-09T21:58:41.981Z,4.13
2018-08-09T22:01:13.471Z,3.93
2018-08-09T22:03:42.646Z,4.07
2018-08-09T22:06:16.639Z,3.93
2018-08-09T22:08:51.062Z,4.10
2018-08-09T22:11:25.304Z,3.33
2018-08-09T22:14:01.029Z,4.07
2018-08-09T22:16:35.656Z,5.17
2018-08-09T22:19:11.022Z,3.67
2018-08-09T22:21:45.078Z,3.97
2018-08-09T22:24:17.823Z,3.90
2018-08-09T22:26:49.268Z,3.77
2018-08-09T22:29:20.884Z,3.73
2018-08-09T22:31:50.267Z,4.50
2018-08-09T22:34:24.938Z,4.03
2018-08-09T22:36:54.109Z,4.30
2018-08-09T22:39:23.638Z,4.43
2018-08-09T22:41:52.717Z,4.37
2018-08-09T22:44:21.798Z,4.63
2018-08-09T22:46:50.803Z,4.10
2018-08-09T22:49:20.683Z,4.30
2018-08-09T22:51:49.678Z,4.23
2018-08-09T22:54:18.774Z,4.47
2018-08-09T22:56:48.380Z,4.53
2018-08-09T22:59:17.400Z,4.90
2018-08-09T23:01:46.540Z,4.80
2018-08-09T23:04:15.824Z,4.40
2018-08-09T23:06:48.561Z,4.60
2018-08-09T23:09:17.724Z,4.63
2018-08-09T23:11:47.604Z,4.90
2018-08-09T23:14:16.878Z,4.83
2018-08-09T23:16:46.193Z,4.47
2018-08-09T23:19:15.513Z,4.50
2018-08-09T23:21:44.585Z,4.33
2018-08-09T23:24:15.116Z,4.60
2018-08-09T23:26:47.642Z,4.33
2018-08-09T23:29:16.935Z,4.30
2018-08-09T23:31:46.064Z,5.00
2018-08-09T23:34:15.080Z,4.43
2018-08-09T23:36:47.824Z,4.57
2018-08-09T23:39:17.026Z,4.80
2018-08-09T23:41:46.060Z,4.63
2018-08-09T23:44:15.265Z,4.77
2018-08-09T23:46:44.205Z,4.00
2018-08-09T23:49:13.508Z,3.87
2018-08-09T23:51:42.937Z,3.93
2018-08-09T23:54:12.935Z,4.50
2018-08-09T23:56:43.242Z,3.93
2018-08-09T23:59:12.438Z,4.30
